Time;durP1;ratioP1;P1;durP2;ratioP2;P2;SDS_P1;SDS_P2;PMS_P1;PMS_P2;Temp;Humidity;BMP_temperature;BMP_pressure;BME280_temperature;BME280_humidity;BME280_pressure;Samples;Min_cycle;Max_cycle;Signal;HPM_P1;HPM_P2
2022/11/04 00:01:25;;;;;;;4.43;0.95;;;;;;;-142.75;100.00;76259.28;5116312;22;20023;-62
2022/11/04 00:03:52;;;;;;;1.85;0.30;;;;;;;-142.75;100.00;76251.41;5106961;27;20059;-66
2022/11/04 00:06:17;;;;;;;1.60;0.60;;;;;;;-142.75;100.00;76255.34;5100353;27;20221;-67
2022/11/04 00:08:50;;;;;;;2.25;0.60;;;;;;;-142.75;100.00;76253.38;5117720;27;20479;-64
2022/11/04 00:13:59;;;;;;;4.15;0.52;;;;;;;-142.75;100.00;76247.47;5118613;27;20060;-66
2022/11/04 00:19:08;;;;;;;5.03;1.52;;;;;;;-142.75;100.00;76271.09;5118598;27;20046;-63
2022/11/04 00:29:46;;;;;;;3.17;0.80;;;;;;;-142.75;100.00;76278.97;5118675;27;20087;-65
2022/11/04 00:34:55;;;;;;;2.28;0.50;;;;;;;-142.75;100.00;76328.19;5117782;27;20030;-64
2022/11/04 00:37:20;;;;;;;4.15;0.90;;;;;;;-142.75;100.00;76341.97;5117584;27;20464;-65
2022/11/04 00:39:45;;;;;;;2.00;0.60;;;;;;;-142.75;100.00;76340.00;5099623;27;20031;-65
2022/11/04 00:42:11;;;;;;;4.40;0.60;;;;;;;-142.75;100.00;76340.00;5117393;27;20058;-65
2022/11/04 00:44:36;;;;;;;4.82;0.55;;;;;;;-142.75;100.00;76343.94;5118012;27;20030;-64
2022/11/04 00:47:01;;;;;;;2.30;0.40;;;;;;;-142.75;100.00;76355.72;5109289;27;20020;-67
2022/11/04 00:49:27;;;;;;;2.78;0.40;;;;;;;-142.75;100.00;76371.47;5097801;28;20430;-65
2022/11/04 00:51:52;;;;;;;0.93;0.57;;;;;;;-142.75;100.00;76375.41;5097490;28;20019;-65
2022/11/04 00:54:17;;;;;;;0.90;0.32;;;;;;;-142.75;100.00;76395.09;5105835;27;20026;-66
2022/11/04 00:56:43;;;;;;;1.23;0.32;;;;;;;-142.75;100.00;76399.03;5117236;27;20516;-62
2022/11/04 00:59:09;;;;;;;5.38;0.73;;;;;;;-142.75;100.00;76401.00;5118147;27;20105;-64
2022/11/04 01:01:34;;;;;;;2.88;0.40;;;;;;;-142.75;100.00;76410.84;5117916;28;20674;-65
2022/11/04 01:04:00;;;;;;;0.30;0.10;;;;;;;-142.75;100.00;76408.88;5113187;28;20129;-64
2022/11/04 01:06:26;;;;;;;0.63;0.20;;;;;;;-142.75;100.00;76401.00;5093646;28;20027;-66
2022/11/04 01:09:01;;;;;;;1.10;0.15;;;;;;;-142.75;100.00;76414.78;5098758;28;20046;-66
2022/11/04 01:11:29;;;;;;;0.52;0.22;;;;;;;-142.75;100.00;76412.81;5117715;28;20488;-63
2022/11/04 01:13:54;;;;;;;2.00;0.50;;;;;;;-142.75;100.00;76426.59;5117550;28;20063;-67
2022/11/04 01:16:21;;;;;;;2.92;0.40;;;;;;;-142.75;100.00;76432.50;5099153;28;20676;-65
2022/11/04 01:18:47;;;;;;;0.68;0.28;;;;;;;-142.75;100.00;76432.50;5099125;28;20487;-66
2022/11/04 01:21:14;;;;;;;4.57;0.40;;;;;;;-142.75;100.00;76422.66;5117750;28;20068;-65
2022/11/04 01:23:41;;;;;;;4.97;0.25;;;;;;;-142.75;100.00;76422.66;5099547;28;20023;-65
2022/11/04 01:26:17;;;;;;;3.45;0.30;;;;;;;-142.75;100.00;76424.63;5098746;28;20023;-66
2022/11/04 01:28:42;;;;;;;0.53;0.20;;;;;;;-142.75;100.00;76440.38;5116925;28;20152;-65
2022/11/04 01:31:10;;;;;;;2.70;0.40;;;;;;;-142.75;100.00;76448.25;5117360;28;20027;-66
2022/11/04 01:33:36;;;;;;;1.88;0.30;;;;;;;-142.75;100.00;76456.13;5117551;28;20027;-65
2022/11/04 01:36:03;;;;;;;1.30;0.30;;;;;;;-142.75;100.00;76452.19;5116776;28;20126;-65
2022/11/04 01:38:28;;;;;;;1.52;0.40;;;;;;;-142.75;100.00;76456.13;5116847;28;20159;-65
2022/11/04 01:40:54;;;;;;;1.00;0.38;;;;;;;-142.75;100.00;76471.88;5117291;28;20506;-65
2022/11/04 01:43:21;;;;;;;1.38;0.30;;;;;;;-142.75;100.00;76479.75;5117060;28;20023;-65
2022/11/04 01:45:55;;;;;;;1.63;0.40;;;;;;;-142.75;100.00;76475.81;5117072;28;20035;-66
2022/11/04 01:48:26;;;;;;;2.03;0.38;;;;;;;-142.75;100.00;76483.69;5116604;28;20023;-66
2022/11/04 01:50:52;;;;;;;1.65;0.47;;;;;;;-142.75;100.00;76483.69;5117612;28;20503;-65
2022/11/04 01:53:25;;;;;;;2.58;0.75;;;;;;;-142.75;100.00;76467.94;5120531;27;20639;-65
2022/11/04 01:55:55;;;;;;;2.22;0.90;;;;;;;-142.75;100.00;76479.75;5121190;27;20030;-66
2022/11/04 01:58:26;;;;;;;2.42;1.13;;;;;;;-142.75;100.00;76491.56;5120700;27;20529;-65
2022/11/04 02:00:52;;;;;;;3.97;1.58;;;;;;;-142.75;100.00;76497.47;5102991;27;20019;-66
2022/11/04 02:03:22;;;;;;;2.72;1.45;;;;;;;-142.75;100.00;76501.41;5120697;27;20042;-66
2022/11/04 02:05:47;;;;;;;4.68;1.50;;;;;;;-142.75;100.00;76521.09;5102248;27;20034;-62
2022/11/04 02:08:15;;;;;;;4.03;2.17;;;;;;;-142.75;100.00;76527.00;5101799;27;20023;-65
2022/11/04 02:10:49;;;;;;;4.88;2.42;;;;;;;-142.75;100.00;76528.97;5121183;27;20035;-65
2022/11/04 02:13:14;;;;;;;6.15;2.50;;;;;;;-142.75;100.00;76530.91;5120985;27;20031;-65
2022/11/04 02:16:21;;;;;;;6.15;3.13;;;;;;;-142.75;100.00;76525.03;5102515;27;20499;-66
2022/11/04 02:19:10;;;;;;;6.87;3.37;;;;;;;-142.75;100.00;76530.91;5115674;27;20039;-66
2022/11/04 02:21:35;;;;;;;8.13;3.42;;;;;;;-142.75;100.00;76536.84;5120836;27;20015;-65
2022/11/04 02:24:38;;;;;;;6.33;3.10;;;;;;;-142.75;100.00;76530.91;5102383;27;20049;-65
2022/11/04 02:27:34;;;;;;;6.82;3.65;;;;;;;-142.75;100.00;76527.00;5119415;27;20019;-65
2022/11/04 02:30:18;;;;;;;7.65;3.40;;;;;;;-142.75;100.00;76534.84;5101943;27;20031;-65
2022/11/04 02:33:02;;;;;;;7.18;3.97;;;;;;;-142.75;100.00;76538.78;5120449;27;20802;-63
2022/11/04 02:35:42;;;;;;;9.35;3.90;;;;;;;-142.75;100.00;76534.84;5120566;27;20054;-65
2022/11/04 02:38:33;;;;;;;8.90;3.95;;;;;;;-142.75;100.00;76536.84;5119500;27;20054;-65
2022/11/04 02:41:07;;;;;;;11.40;4.40;;;;;;;-142.75;100.00;76546.66;5101565;27;20023;-64
2022/11/04 02:43:59;;;;;;;11.32;5.43;;;;;;;-142.75;100.00;76552.56;5120523;27;20059;-66
2022/11/04 02:46:33;;;;;;;8.90;4.80;;;;;;;-142.75;100.00;76554.53;5120298;27;20022;-63
2022/11/04 02:49:07;;;;;;;10.65;5.18;;;;;;;-142.75;100.00;76550.59;5119817;27;20142;-64
2022/11/04 02:51:46;;;;;;;10.38;5.20;;;;;;;-142.75;100.00;76550.59;5102010;27;20400;-66
2022/11/04 02:54:24;;;;;;;11.05;5.05;;;;;;;-142.75;100.00;76552.56;5081354;28;20023;-63
2022/11/04 02:56:51;;;;;;;10.35;4.80;;;;;;;-142.75;100.00;76550.59;5081015;28;20034;-65
2022/11/04 02:59:30;;;;;;;9.57;5.25;;;;;;;-142.75;100.00;76542.72;5081538;28;20900;-61
2022/11/04 03:02:00;;;;;;;10.18;5.18;;;;;;;-142.75;100.00;76542.72;5099130;28;20395;-65
2022/11/04 03:04:36;;;;;;;9.45;5.50;;;;;;;-142.75;100.00;76548.63;5098706;28;20027;-64
2022/11/04 03:07:04;;;;;;;12.57;4.82;;;;;;;-142.75;100.00;76560.44;5079912;28;20027;-66
2022/11/04 03:09:32;;;;;;;9.48;4.95;;;;;;;-142.75;100.00;76566.34;5081399;28;20156;-65
2022/11/04 03:12:13;;;;;;;12.82;5.72;;;;;;;-142.75;100.00;76568.31;5098898;28;20028;-65
2022/11/04 03:14:43;;;;;;;11.48;5.95;;;;;;;-142.75;100.00;76560.44;5099581;28;20027;-66
2022/11/04 03:17:28;;;;;;;11.15;4.95;;;;;;;-142.75;100.00;76562.41;5098276;28;20038;-66
2022/11/04 03:19:57;;;;;;;9.18;5.30;;;;;;;-142.75;100.00;76560.44;5099425;27;20072;-66
2022/11/04 03:22:28;;;;;;;11.98;6.00;;;;;;;-142.75;100.00;76570.28;5099501;28;20824;-64
2022/11/04 03:24:54;;;;;;;11.93;5.80;;;;;;;-142.75;100.00;76562.41;5099174;27;20035;-65
2022/11/04 03:27:41;;;;;;;15.35;6.70;;;;;;;-142.75;100.00;76558.47;5080006;28;20024;-65
2022/11/04 03:30:16;;;;;;;;;;;;;;;-142.75;100.00;76574.22;5099034;28;20028;-65
2022/11/04 03:32:45;;;;;;;13.93;5.63;;;;;;;-142.75;100.00;76578.16;5099304;28;19938;-65
2022/11/04 03:35:14;;;;;;;13.38;6.13;;;;;;;-142.75;100.00;76580.13;5098833;28;20042;-64
2022/11/04 03:37:40;;;;;;;16.67;6.78;;;;;;;-142.75;100.00;76593.91;5098139;28;20077;-66
2022/11/04 03:40:07;;;;;;;12.95;7.10;;;;;;;-142.75;100.00;76605.72;5079989;28;20110;-64
2022/11/04 03:42:36;;;;;;;16.75;6.95;;;;;;;-142.75;100.00;76613.59;5098575;28;20054;-63
2022/11/04 03:45:02;;;;;;;12.75;6.93;;;;;;;-142.75;100.00;76617.53;5080010;28;20027;-65
2022/11/04 03:47:29;;;;;;;15.07;6.72;;;;;;;-142.75;100.00;76615.56;5079913;28;20705;-66
2022/11/04 03:50:00;;;;;;;12.00;5.97;;;;;;;-142.75;100.00;76633.28;5080574;28;20291;-64
2022/11/04 03:52:26;;;;;;;12.00;6.20;;;;;;;-142.75;100.00;76637.22;5099019;28;20111;-65
2022/11/04 03:54:51;;;;;;;12.73;5.47;;;;;;;-142.75;100.00;76647.06;5098061;27;20384;-63
2022/11/04 03:57:36;;;;;;;12.80;5.80;;;;;;;-142.75;100.00;76649.03;5097693;28;20310;-65
2022/11/04 04:00:13;;;;;;;17.15;5.15;;;;;;;-142.75;100.00;76652.97;5098231;28;20039;-65
2022/11/04 04:02:53;;;;;;;15.82;6.30;;;;;;;-142.75;100.00;76645.09;5098240;28;20629;-65
2022/11/04 04:05:21;;;;;;;12.43;5.70;;;;;;;-142.75;100.00;76654.94;5080022;28;20023;-65
2022/11/04 04:07:54;;;;;;;13.00;4.60;;;;;;;-142.75;100.00;76666.75;5097423;28;20023;-65
2022/11/04 04:10:55;;;;;;;12.70;5.03;;;;;;;-142.75;100.00;76668.72;5098138;28;20023;-66
2022/11/04 04:13:26;;;;;;;12.73;4.75;;;;;;;-142.75;100.00;76664.78;5097897;28;20020;-65
2022/11/04 04:16:15;;;;;;;9.75;4.60;;;;;;;-142.75;100.00;76670.69;5098165;28;20640;-66
2022/11/04 04:18:53;;;;;;;10.23;4.65;;;;;;;-142.75;100.00;76670.69;5096666;28;20825;-65
2022/11/04 04:21:22;;;;;;;10.38;4.40;;;;;;;-142.75;100.00;76662.81;5080021;28;20797;-65
2022/11/04 04:29:24;;;;;;;7.85;2.70;;;;;;;-142.75;100.00;76688.41;5098282;28;20130;-64
2022/11/04 04:31:56;;;;;;;12.32;3.85;;;;;;;-142.75;100.00;76682.50;5097767;28;20032;-66
2022/11/04 04:34:25;;;;;;;12.00;3.70;;;;;;;-142.75;100.00;76676.59;5097840;27;20536;-63
2022/11/04 04:36:53;;;;;;;9.45;3.50;;;;;;;-142.75;100.00;76676.59;5096994;28;20019;-66
2022/11/04 04:44:58;;;;;;;10.55;3.30;;;;;;;-142.75;100.00;76698.25;5097166;28;20063;-65
2022/11/04 04:47:25;;;;;;;6.70;2.83;;;;;;;-142.75;100.00;76692.34;5097114;28;20206;-65
2022/11/04 04:49:53;;;;;;;9.13;3.28;;;;;;;-142.75;100.00;76694.31;5097754;28;20027;-66
2022/11/04 04:52:20;;;;;;;10.45;3.20;;;;;;;-142.75;100.00;76690.38;5097939;28;20064;-65
2022/11/04 04:54:46;;;;;;;8.35;3.08;;;;;;;-142.75;100.00;76694.31;5097535;28;20031;-65
2022/11/04 04:57:12;;;;;;;11.27;2.60;;;;;;;-142.75;100.00;76694.31;5112031;27;20026;-65
2022/11/04 04:59:37;;;;;;;8.75;2.75;;;;;;;-142.75;100.00;76692.34;5118074;27;20023;-65
2022/11/04 05:02:02;;;;;;;9.98;2.80;;;;;;;-142.75;100.00;76698.25;5116537;27;20838;-65
2022/11/04 05:04:28;;;;;;;7.35;2.58;;;;;;;-142.75;100.00;76702.19;5099050;28;20029;-62
2022/11/04 05:06:53;;;;;;;11.32;3.28;;;;;;;-142.75;100.00;76696.28;5098136;28;20057;-64
2022/11/04 05:09:18;;;;;;;6.38;2.13;;;;;;;-142.75;100.00;76698.25;5117148;28;20023;-65
2022/11/04 05:11:44;;;;;;;10.77;2.90;;;;;;;-142.75;100.00;76692.34;5117027;28;20511;-64
2022/11/04 05:14:09;;;;;;;5.18;2.75;;;;;;;-142.75;100.00;76704.16;5116821;28;20033;-65
2022/11/04 05:16:34;;;;;;;8.38;2.53;;;;;;;-142.75;100.00;76704.16;5116607;28;20023;-63
2022/11/04 05:18:59;;;;;;;6.50;2.85;;;;;;;-142.75;100.00;76714.00;5116772;28;20030;-63
2022/11/04 05:21:25;;;;;;;9.50;2.55;;;;;;;-142.75;100.00;76719.91;5117157;28;20494;-65
2022/11/04 05:23:50;;;;;;;6.07;2.05;;;;;;;-142.75;100.00;76729.75;5117684;28;20023;-65
2022/11/04 05:26:16;;;;;;;4.35;2.08;;;;;;;-142.75;100.00;76719.91;5118532;27;20023;-65
2022/11/04 05:28:41;;;;;;;7.05;2.38;;;;;;;-142.75;100.00;76727.78;5123198;27;20468;-65
2022/11/04 05:31:07;;;;;;;7.72;2.08;;;;;;;-142.75;100.00;76719.91;5123399;27;20034;-62
2022/11/04 05:33:32;;;;;;;5.28;2.50;;;;;;;-142.75;100.00;76719.91;5123938;27;20077;-65
2022/11/04 05:36:06;;;;;;;7.07;2.17;;;;;;;-142.75;100.00;76719.91;5104765;27;20035;-62
2022/11/04 05:38:31;;;;;;;6.13;2.13;;;;;;;-142.75;100.00;76731.72;5123055;27;20034;-66
2022/11/04 05:40:57;;;;;;;4.78;1.98;;;;;;;-142.75;100.00;76721.88;5123338;27;20384;-65
2022/11/04 05:43:22;;;;;;;6.47;1.92;;;;;;;-142.75;100.00;76715.97;5123609;27;20499;-65
2022/11/04 05:45:48;;;;;;;4.97;2.20;;;;;;;-142.75;100.00;76719.91;5123257;27;20076;-65
2022/11/04 05:48:13;;;;;;;4.97;2.78;;;;;;;-142.75;100.00;76719.91;5122697;27;20033;-65
2022/11/04 05:50:40;;;;;;;4.40;2.05;;;;;;;-142.75;100.00;76723.84;5105191;27;20023;-66
2022/11/04 05:53:06;;;;;;;11.38;2.80;;;;;;;-142.75;100.00;76737.63;5104110;27;20054;-64
2022/11/04 05:55:31;;;;;;;10.73;2.53;;;;;;;-142.75;100.00;76757.31;5123503;27;20023;-65
2022/11/04 05:57:58;;;;;;;6.88;2.13;;;;;;;-142.75;100.00;76763.22;5104045;27;20884;-65
2022/11/04 06:00:24;;;;;;;5.22;2.60;;;;;;;-142.75;100.00;76778.97;5123554;27;20102;-65
2022/11/04 06:02:49;;;;;;;6.07;2.42;;;;;;;-142.75;100.00;76778.97;5127664;22;20078;-67
2022/11/04 06:05:15;;;;;;;9.57;3.00;;;;;;;-142.75;100.00;76775.03;5082172;28;20030;-68
2022/11/04 06:07:40;;;;;;;8.98;2.85;;;;;;;-142.75;100.00;76759.28;5081700;28;20448;-67
2022/11/04 06:10:06;;;;;;;8.25;2.90;;;;;;;-142.75;100.00;76739.59;5081442;28;20020;-68
2022/11/04 06:12:31;;;;;;;10.15;3.63;;;;;;;-142.75;100.00;76747.47;5082334;28;20880;-68
2022/11/04 06:14:57;;;;;;;14.90;3.08;;;;;;;-142.75;100.00;76739.59;5081804;28;20381;-68
2022/11/04 06:17:22;;;;;;;5.75;3.10;;;;;;;-142.75;100.00;76737.63;5081127;28;20442;-67
2022/11/04 06:19:48;;;;;;;6.57;3.37;;;;;;;-142.75;100.00;76733.69;5081804;28;20056;-69
2022/11/04 06:22:15;;;;;;;9.88;3.75;;;;;;;-142.75;100.00;76733.69;5081862;28;20824;-67
2022/11/04 06:24:41;;;;;;;10.13;2.85;;;;;;;-142.75;100.00;76727.78;5082244;28;20046;-68
2022/11/04 06:27:08;;;;;;;12.65;2.95;;;;;;;-142.75;100.00;76737.63;5062647;28;20028;-67
2022/11/04 06:29:33;;;;;;;13.88;3.42;;;;;;;-142.75;100.00;76743.53;5081293;28;20071;-69
2022/11/04 06:31:58;;;;;;;11.27;3.00;;;;;;;-142.75;100.00;76751.41;5081108;28;20103;-67
2022/11/04 06:34:24;;;;;;;5.40;2.50;;;;;;;-142.75;100.00;76761.25;5081783;28;20036;-69
2022/11/04 06:36:49;;;;;;;10.13;4.18;;;;;;;-142.75;100.00;76755.34;5080693;28;20024;-70
2022/11/04 06:39:14;;;;;;;8.95;3.38;;;;;;;-142.75;100.00;76763.22;5079929;28;20020;-70
2022/11/04 06:41:40;;;;;;;10.07;2.97;;;;;;;-142.75;100.00;76751.41;5081654;28;20059;-69
2022/11/04 06:44:05;;;;;;;7.72;2.60;;;;;;;-142.75;100.00;76749.44;5080910;28;20062;-70
2022/11/04 06:46:31;;;;;;;15.35;3.33;;;;;;;-142.75;100.00;76745.50;5081443;28;20143;-67
2022/11/04 06:48:56;;;;;;;10.10;2.53;;;;;;;-142.75;100.00;76755.34;5080808;28;20370;-69
2022/11/04 06:51:22;;;;;;;7.22;2.70;;;;;;;-142.75;100.00;76755.34;5081252;28;20060;-71
2022/11/04 06:53:47;;;;;;;;;;;;;;;-142.75;100.00;76751.41;5081638;28;20571;-70
2022/11/04 06:56:13;;;;;;;8.85;3.08;;;;;;;-142.75;100.00;76759.28;5062923;28;19912;-70
2022/11/04 06:58:38;;;;;;;11.00;3.08;;;;;;;-142.75;100.00;76755.34;5080538;28;20501;-70
2022/11/04 07:01:04;;;;;;;12.53;4.27;;;;;;;-142.75;100.00;76769.13;5080725;28;20020;-70
2022/11/04 07:03:29;;;;;;;10.20;4.07;;;;;;;-142.75;100.00;76763.22;5080808;28;20265;-69
2022/11/04 07:05:54;;;;;;;12.80;3.95;;;;;;;-142.75;100.00;76771.09;5080790;28;20042;-70
2022/11/04 07:08:19;;;;;;;10.35;3.17;;;;;;;-142.75;100.00;76778.97;5061941;28;20078;-70
2022/11/04 07:10:45;;;;;;;10.43;3.42;;;;;;;-142.75;100.00;76782.91;5062697;28;20050;-69
2022/11/04 07:13:10;;;;;;;6.13;2.95;;;;;;;-142.75;100.00;76790.78;5080846;28;20024;-70
2022/11/04 07:15:38;;;;;;;9.07;3.13;;;;;;;-142.75;100.00;76788.81;5080912;28;20069;-70
2022/11/04 07:18:05;;;;;;;8.70;2.85;;;;;;;-142.75;100.00;76786.84;5079691;28;20023;-68
2022/11/04 07:20:31;;;;;;;12.95;3.47;;;;;;;-142.75;100.00;76780.94;5078287;28;20030;-69
2022/11/04 07:22:56;;;;;;;12.38;3.53;;;;;;;-142.75;100.00;76794.69;5080441;28;20497;-68
2022/11/04 07:25:22;;;;;;;16.08;3.90;;;;;;;-142.75;100.00;76786.84;5080450;28;20024;-67
2022/11/04 07:27:47;;;;;;;20.85;3.60;;;;;;;-142.75;100.00;76794.69;5079757;28;20437;-67
2022/11/04 07:30:12;;;;;;;9.18;3.08;;;;;;;-142.75;100.00;76798.66;5062214;28;20043;-66
2022/11/04 07:32:38;;;;;;;12.85;2.88;;;;;;;-142.75;100.00;76790.78;5080470;28;20024;-67
2022/11/04 07:35:03;;;;;;;14.23;2.90;;;;;;;-142.75;100.00;76792.75;5080144;28;20027;-67
2022/11/04 07:37:29;;;;;;;8.00;2.95;;;;;;;-142.75;100.00;76802.56;5079860;28;21198;-68
2022/11/04 07:39:54;;;;;;;8.02;3.47;;;;;;;-142.75;100.00;76782.91;5080197;28;20054;-68
2022/11/04 07:42:19;;;;;;;8.38;2.67;;;;;;;-142.75;100.00;76751.41;5080221;28;20482;-67
2022/11/04 07:44:46;;;;;;;7.55;2.53;;;;;;;-142.75;100.00;76712.03;5080385;28;20028;-66
2022/11/04 07:47:11;;;;;;;8.90;2.75;;;;;;;-142.75;100.00;76696.28;5079214;28;20340;-67
2022/11/04 07:49:36;;;;;;;8.27;2.47;;;;;;;-142.75;100.00;76672.66;5061709;28;20020;-67
2022/11/04 07:52:02;;;;;;;10.60;3.17;;;;;;;-142.75;100.00;76621.47;5061206;28;20023;-68
2022/11/04 07:54:27;;;;;;;9.77;2.47;;;;;;;-142.75;100.00;76609.66;5080340;28;20036;-68
2022/11/04 07:56:53;;;;;;;9.85;2.25;;;;;;;-142.75;100.00;76582.09;5079292;28;20854;-67
2022/11/04 07:59:18;;;;;;;6.03;2.63;;;;;;;-142.75;100.00;76580.13;5079899;28;20053;-69
2022/11/04 08:01:43;;;;;;;10.02;2.53;;;;;;;-142.75;100.00;76578.16;5079944;28;20028;-66
2022/11/04 08:04:10;;;;;;;12.07;3.15;;;;;;;-142.75;100.00;76574.22;5079554;28;20015;-67
2022/11/04 08:06:35;;;;;;;9.05;2.40;;;;;;;-142.75;100.00;76562.41;5079720;28;20028;-67
2022/11/04 08:09:01;;;;;;;12.88;3.25;;;;;;;-142.75;100.00;76544.69;5079382;28;20035;-67
2022/11/04 08:11:27;;;;;;;9.48;2.83;;;;;;;-142.75;100.00;76515.19;5080070;28;20027;-69
2022/11/04 08:13:52;;;;;;;;;;;;;;;-142.75;100.00;76495.50;5080057;28;20056;-69
2022/11/04 08:16:20;;;;;;;8.55;2.40;;;;;;;-142.75;100.00;76491.56;5079762;28;20061;-67
2022/11/04 08:18:47;;;;;;;15.70;3.35;;;;;;;-142.75;100.00;76467.94;5078882;28;20024;-67
2022/11/04 08:21:13;;;;;;;6.07;2.53;;;;;;;-142.75;100.00;76440.38;5061531;28;20664;-67
2022/11/04 08:23:39;;;;;;;;;;;;;;;-142.75;100.00;76440.38;5080050;28;20102;-67
2022/11/04 08:26:22;;;;;;;10.27;2.40;;;;;;;-142.75;100.00;76416.75;5079361;28;19922;-67
2022/11/04 08:28:50;;;;;;;5.78;2.33;;;;;;;-142.75;100.00;76401.00;5060869;28;20044;-67
2022/11/04 08:31:15;;;;;;;8.90;2.53;;;;;;;-142.75;100.00;76365.56;5079409;28;20024;-67
2022/11/04 08:33:41;;;;;;;10.10;2.23;;;;;;;-142.75;100.00;76361.63;5079307;28;20035;-69
2022/11/04 08:36:18;;;;;;;7.15;2.83;;;;;;;-142.75;100.00;76353.78;5079173;28;20274;-67
2022/11/04 08:38:44;;;;;;;8.63;2.67;;;;;;;-142.75;100.00;76345.91;5078570;28;20031;-68
2022/11/04 08:41:12;;;;;;;9.48;2.33;;;;;;;-142.75;100.00;76351.81;5079210;28;20028;-68
2022/11/04 08:43:38;;;;;;;7.00;2.30;;;;;;;-142.75;100.00;76391.16;5079460;28;20027;-67
2022/11/04 08:46:06;;;;;;;11.30;2.80;;;;;;;-142.75;100.00;76406.91;5079035;28;20592;-66
2022/11/04 08:48:33;;;;;;;5.65;2.50;;;;;;;-142.75;100.00;76412.81;5078537;28;20125;-67
2022/11/04 08:50:59;;;;;;;7.82;2.90;;;;;;;-142.75;100.00;76416.75;5060406;28;20066;-65
2022/11/04 08:53:24;;;;;;;8.57;2.75;;;;;;;-142.75;100.00;76412.81;5061333;28;20473;-67
2022/11/04 08:55:49;;;;;;;;;;;;;;;-142.75;100.00;76448.25;5079446;28;20165;-67
2022/11/04 08:58:16;;;;;;;9.85;2.88;;;;;;;-142.75;100.00;76460.06;5078226;28;19951;-67
2022/11/04 09:00:41;;;;;;;8.48;3.17;;;;;;;-142.75;100.00;76464.00;5079128;28;20040;-67
2022/11/04 09:03:07;;;;;;;9.90;3.67;;;;;;;-142.75;100.00;76483.69;5077525;28;20032;-67
2022/11/04 09:05:32;;;;;;;5.75;2.85;;;;;;;-142.75;100.00;76495.50;5078924;28;20081;-67
2022/11/04 09:08:00;;;;;;;12.15;3.25;;;;;;;-142.75;100.00;76495.50;5078115;28;20028;-67
2022/11/04 09:10:25;;;;;;;9.00;3.28;;;;;;;-142.75;100.00;76505.34;5078925;28;20995;-67
2022/11/04 09:12:50;;;;;;;10.02;3.33;;;;;;;-142.75;100.00;76503.38;5079012;28;20024;-67
2022/11/04 09:15:16;;;;;;;8.27;3.85;;;;;;;-142.75;100.00;76509.28;5079020;28;20036;-68
2022/11/04 09:17:43;;;;;;;14.27;4.10;;;;;;;-142.75;100.00;76528.97;5078628;28;20020;-66
2022/11/04 09:20:09;;;;;;;10.35;3.95;;;;;;;-142.75;100.00;76523.06;5078615;28;20123;-67
2022/11/04 09:22:34;;;;;;;10.43;3.83;;;;;;;-142.75;100.00;76519.13;5060780;28;20039;-67
2022/11/04 09:24:59;;;;;;;10.90;4.15;;;;;;;-142.75;100.00;76517.16;5078255;28;20056;-67
2022/11/04 09:27:25;;;;;;;10.65;4.05;;;;;;;-142.75;100.00;76523.06;5078100;28;20107;-68
2022/11/04 09:29:50;;;;;;;9.52;4.55;;;;;;;-142.75;100.00;76499.44;5078931;28;20474;-67
2022/11/04 09:32:15;;;;;;;11.35;3.70;;;;;;;-142.75;100.00;76491.56;5078320;28;20020;-67
2022/11/04 09:34:41;;;;;;;9.88;3.90;;;;;;;-142.75;100.00;76479.75;5060622;28;20261;-66
2022/11/04 09:37:06;;;;;;;9.85;3.60;;;;;;;-142.75;100.00;76467.94;5077895;28;20061;-67
2022/11/04 09:39:31;;;;;;;;;;;;;;;-142.75;100.00;76462.03;5079191;28;20433;-67
2022/11/04 09:42:18;;;;;;;11.45;4.30;;;;;;;-142.75;100.00;76456.13;5078637;28;19966;-67
2022/11/04 09:44:49;;;;;;;;;;;;;;;-142.75;100.00;76456.13;5078955;28;20039;-67
2022/11/04 09:47:16;;;;;;;8.77;4.05;;;;;;;-142.75;100.00;76444.31;5077373;28;19923;-67
2022/11/04 09:49:46;;;;;;;7.78;3.47;;;;;;;-142.75;100.00;76426.59;5060569;28;20024;-67
2022/11/04 09:52:22;;;;;;;7.40;3.78;;;;;;;-142.75;100.00;76379.34;5078395;28;20051;-67
2022/11/04 09:55:05;;;;;;;12.48;4.32;;;;;;;-142.75;100.00;76385.25;5078549;28;20042;-68
2022/11/04 09:57:32;;;;;;;9.00;3.67;;;;;;;-142.75;100.00;76401.00;5059909;28;20016;-67
2022/11/04 09:59:58;;;;;;;11.27;3.90;;;;;;;-142.75;100.00;76408.88;5078584;28;20618;-68
2022/11/04 10:02:38;;;;;;;11.07;4.40;;;;;;;-142.75;100.00;76446.28;5075908;28;20538;-67
2022/11/04 10:05:29;;;;;;;10.98;3.97;;;;;;;-142.75;100.00;76434.47;5059862;28;20028;-67
2022/11/04 10:08:07;;;;;;;12.55;4.07;;;;;;;-142.75;100.00;76452.19;5077321;28;20028;-67
2022/11/04 10:10:49;;;;;;;8.75;4.13;;;;;;;-142.75;100.00;76467.94;5078398;28;20032;-67
2022/11/04 10:13:28;;;;;;;7.38;3.63;;;;;;;-142.75;100.00;76483.69;5079343;28;20024;-67
2022/11/04 10:16:09;;;;;;;14.70;4.07;;;;;;;-142.75;100.00;76481.72;5081819;28;20062;-68
2022/11/04 10:18:59;;;;;;;12.00;4.00;;;;;;;-142.75;100.00;76481.72;5081579;28;20043;-67
2022/11/04 10:21:36;;;;;;;11.98;5.05;;;;;;;-142.75;100.00;76507.31;5082265;28;20027;-67
2022/11/04 10:24:01;;;;;;;8.25;4.07;;;;;;;-142.75;100.00;76519.13;5081479;28;20028;-69
2022/11/04 10:26:39;;;;;;;13.47;4.80;;;;;;;-142.75;100.00;76523.06;5081814;28;20814;-67
2022/11/04 10:29:12;;;;;;;9.57;3.90;;;;;;;-142.75;100.00;76530.91;5081406;28;20613;-68
2022/11/04 10:31:40;;;;;;;9.23;3.65;;;;;;;-142.75;100.00;76519.13;5064016;28;20024;-67
2022/11/04 10:34:11;;;;;;;9.15;4.22;;;;;;;-142.75;100.00;76515.19;5062993;28;20024;-66
2022/11/04 10:36:37;;;;;;;10.60;4.53;;;;;;;-142.75;100.00;76538.78;5080929;28;20031;-67
2022/11/04 10:39:12;;;;;;;12.13;4.00;;;;;;;-142.75;100.00;76558.47;5081477;28;20139;-67
2022/11/04 10:41:39;;;;;;;12.00;3.58;;;;;;;-142.75;100.00;76560.44;5081797;28;20032;-68
2022/11/04 10:44:15;;;;;;;8.77;4.03;;;;;;;-142.75;100.00;76554.53;5080866;28;20020;-67
2022/11/04 10:46:58;;;;;;;12.13;4.93;;;;;;;-142.75;100.00;76554.53;5080726;28;20024;-67
2022/11/04 10:49:32;;;;;;;13.50;4.30;;;;;;;-142.75;100.00;76552.56;5081639;28;20020;-67
2022/11/04 10:51:58;;;;;;;11.13;4.10;;;;;;;-142.75;100.00;76538.78;5080978;28;20102;-67
2022/11/04 10:54:26;;;;;;;9.60;4.15;;;;;;;-142.75;100.00;76530.91;5081309;28;20020;-67
2022/11/04 10:56:53;;;;;;;8.30;4.15;;;;;;;-142.75;100.00;76528.97;5080429;28;20139;-67
2022/11/04 10:59:26;;;;;;;10.20;4.47;;;;;;;-142.75;100.00;76515.19;5081155;28;20051;-67
2022/11/04 11:01:57;;;;;;;8.65;4.07;;;;;;;-142.75;100.00;76497.47;5062799;28;20790;-67
2022/11/04 11:04:27;;;;;;;9.55;4.13;;;;;;;-142.75;100.00;76495.50;5081708;28;20830;-68
2022/11/04 11:06:54;;;;;;;12.73;4.47;;;;;;;-142.75;100.00;76491.56;5080138;28;20134;-67
2022/11/04 11:09:27;;;;;;;7.15;3.97;;;;;;;-142.75;100.00;76475.81;5081108;28;20042;-67
2022/11/04 11:11:53;;;;;;;11.77;4.15;;;;;;;-142.75;100.00;76475.81;5080894;28;20119;-67
2022/11/04 11:14:28;;;;;;;12.13;3.80;;;;;;;-142.75;100.00;76471.88;5080876;28;20026;-68
2022/11/04 11:16:54;;;;;;;8.98;4.50;;;;;;;-142.75;100.00;76430.53;5061791;28;20032;-65
2022/11/04 11:19:20;;;;;;;;;;;;;;;-142.75;100.00;76391.16;5081126;28;20023;-67
2022/11/04 11:21:48;;;;;;;6.00;3.83;;;;;;;-142.75;100.00;76302.59;5080404;28;19928;-67
2022/11/04 11:24:26;;;;;;;9.43;3.30;;;;;;;-142.75;100.00;76219.91;5079931;28;20066;-68
2022/11/04 11:26:57;;;;;;;10.43;3.50;;;;;;;-142.75;100.00;76166.78;5079789;28;20028;-68
2022/11/04 11:29:25;;;;;;;11.95;3.00;;;;;;;-142.75;100.00;76186.47;5080581;28;20030;-68
2022/11/04 11:31:53;;;;;;;8.15;3.17;;;;;;;-142.75;100.00;76156.94;5062292;28;20043;-67
2022/11/04 11:34:27;;;;;;;6.75;2.85;;;;;;;-142.75;100.00;76188.44;5080288;28;20060;-67
2022/11/04 11:36:55;;;;;;;6.68;3.03;;;;;;;-142.75;100.00;76219.91;5079537;28;20036;-67
2022/11/04 11:39:24;;;;;;;8.07;2.40;;;;;;;-142.75;100.00;76261.25;5080330;28;20028;-67
2022/11/04 11:42:00;;;;;;;6.95;2.63;;;;;;;-142.75;100.00;76280.94;5080328;28;20099;-67
2022/11/04 11:44:31;;;;;;;9.00;2.17;;;;;;;-142.75;100.00;76296.69;5080424;28;20051;-67
2022/11/04 11:47:02;;;;;;;4.93;1.88;;;;;;;-142.75;100.00;76334.09;5079282;28;20024;-67